sensor_id;sensor_type;location;lat;lon;timestamp;temperature;humidity
10889;DHT22;5497;51.388;6.780;2022-08-24T00:02:11;18.90;99.90
10889;DHT22;5497;51.388;6.780;2022-08-24T00:04:38;18.90;99.90
10889;DHT22;5497;51.388;6.780;2022-08-24T00:07:06;18.80;99.90
10889;DHT22;5497;51.388;6.780;2022-08-24T00:09:33;18.80;99.90
10889;DHT22;5497;51.388;6.780;2022-08-24T00:12:03;18.80;99.90
10889;DHT22;5497;51.388;6.780;2022-08-24T00:14:30;18.80;99.90
10889;DHT22;5497;51.388;6.780;2022-08-24T00:17:03;18.80;99.90
10889;DHT22;5497;51.388;6.780;2022-08-24T00:19:30;18.70;99.90
10889;DHT22;5497;51.388;6.780;2022-08-24T00:21:57;18.70;99.90
10889;DHT22;5497;51.388;6.780;2022-08-24T00:24:24;18.60;99.90
10889;DHT22;5497;51.388;6.780;2022-08-24T00:26:51;18.60;99.90
10889;DHT22;5497;51.388;6.780;2022-08-24T00:29:18;18.60;99.90
10889;DHT22;5497;51.388;6.780;2022-08-24T00:31:46;18.60;99.90
10889;DHT22;5497;51.388;6.780;2022-08-24T00:34:15;18.50;99.90
10889;DHT22;5497;51.388;6.780;2022-08-24T00:36:43;18.10;99.90
10889;DHT22;5497;51.388;6.780;2022-08-24T00:39:10;18.40;99.90
10889;DHT22;5497;51.388;6.780;2022-08-24T00:41:38;18.50;99.90
10889;DHT22;5497;51.388;6.780;2022-08-24T00:44:06;18.50;99.90
10889;DHT22;5497;51.388;6.780;2022-08-24T00:46:37;18.90;99.90
10889;DHT22;5497;51.388;6.780;2022-08-24T00:49:08;18.40;99.90
10889;DHT22;5497;51.388;6.780;2022-08-24T00:51:38;18.40;99.90
10889;DHT22;5497;51.388;6.780;2022-08-24T00:54:06;18.40;99.90
10889;DHT22;5497;51.388;6.780;2022-08-24T00:56:35;18.30;99.90
10889;DHT22;5497;51.388;6.780;2022-08-24T00:59:04;18.30;99.90
10889;DHT22;5497;51.388;6.780;2022-08-24T01:01:33;18.30;99.90
10889;DHT22;5497;51.388;6.780;2022-08-24T01:04:01;18.30;99.90
10889;DHT22;5497;51.388;6.780;2022-08-24T01:06:32;18.30;99.90
10889;DHT22;5497;51.388;6.780;2022-08-24T01:09:16;18.20;99.90
10889;DHT22;5497;51.388;6.780;2022-08-24T01:11:54;18.20;99.90
10889;DHT22;5497;51.388;6.780;2022-08-24T01:14:35;18.20;99.90
10889;DHT22;5497;51.388;6.780;2022-08-24T01:17:19;18.10;99.90
10889;DHT22;5497;51.388;6.780;2022-08-24T01:20:13;18.10;99.90
10889;DHT22;5497;51.388;6.780;2022-08-24T01:22:52;18.10;99.90
10889;DHT22;5497;51.388;6.780;2022-08-24T01:25:27;18.10;99.90
10889;DHT22;5497;51.388;6.780;2022-08-24T01:28:07;18.00;99.90
10889;DHT22;5497;51.388;6.780;2022-08-24T01:30:41;18.00;99.90
10889;DHT22;5497;51.388;6.780;2022-08-24T01:33:23;18.00;99.90
10889;DHT22;5497;51.388;6.780;2022-08-24T01:35:52;18.00;99.90
10889;DHT22;5497;51.388;6.780;2022-08-24T01:38:23;17.90;99.90
10889;DHT22;5497;51.388;6.780;2022-08-24T01:40:58;17.90;99.90
10889;DHT22;5497;51.388;6.780;2022-08-24T01:43:32;17.90;99.90
10889;DHT22;5497;51.388;6.780;2022-08-24T01:46:10;17.90;99.90
10889;DHT22;5497;51.388;6.780;2022-08-24T01:48:38;17.80;99.90
10889;DHT22;5497;51.388;6.780;2022-08-24T01:51:05;17.80;99.90
10889;DHT22;5497;51.388;6.780;2022-08-24T01:53:35;17.80;99.90
10889;DHT22;5497;51.388;6.780;2022-08-24T01:56:12;17.80;99.90
10889;DHT22;5497;51.388;6.780;2022-08-24T01:58:41;17.80;99.90
10889;DHT22;5497;51.388;6.780;2022-08-24T02:01:08;17.80;99.90
10889;DHT22;5497;51.388;6.780;2022-08-24T02:03:35;17.80;99.90
10889;DHT22;5497;51.388;6.780;2022-08-24T02:06:02;17.70;99.90
10889;DHT22;5497;51.388;6.780;2022-08-24T02:08:30;17.70;99.90
10889;DHT22;5497;51.388;6.780;2022-08-24T02:11:01;17.70;99.90
10889;DHT22;5497;51.388;6.780;2022-08-24T02:13:30;17.70;99.90
10889;DHT22;5497;51.388;6.780;2022-08-24T02:15:57;17.70;99.90
10889;DHT22;5497;51.388;6.780;2022-08-24T02:18:28;17.70;99.90
10889;DHT22;5497;51.388;6.780;2022-08-24T02:20:55;17.60;99.90
10889;DHT22;5497;51.388;6.780;2022-08-24T02:23:22;17.60;99.90
10889;DHT22;5497;51.388;6.780;2022-08-24T02:25:49;17.60;99.90
10889;DHT22;5497;51.388;6.780;2022-08-24T02:28:16;17.60;99.90
10889;DHT22;5497;51.388;6.780;2022-08-24T02:30:46;17.50;99.90
10889;DHT22;5497;51.388;6.780;2022-08-24T02:33:13;17.50;99.90
10889;DHT22;5497;51.388;6.780;2022-08-24T02:35:40;17.50;99.90
10889;DHT22;5497;51.388;6.780;2022-08-24T02:38:08;17.50;99.90
10889;DHT22;5497;51.388;6.780;2022-08-24T02:40:36;17.40;99.90
10889;DHT22;5497;51.388;6.780;2022-08-24T02:43:04;17.40;99.90
10889;DHT22;5497;51.388;6.780;2022-08-24T02:45:31;17.40;99.90
10889;DHT22;5497;51.388;6.780;2022-08-24T02:48:00;17.40;99.90
10889;DHT22;5497;51.388;6.780;2022-08-24T02:50:27;17.40;99.90
10889;DHT22;5497;51.388;6.780;2022-08-24T02:52:53;17.40;99.90
10889;DHT22;5497;51.388;6.780;2022-08-24T02:55:20;17.30;99.90
10889;DHT22;5497;51.388;6.780;2022-08-24T02:57:50;17.30;99.90
10889;DHT22;5497;51.388;6.780;2022-08-24T03:00:18;17.30;99.90
10889;DHT22;5497;51.388;6.780;2022-08-24T03:02:53;17.30;99.90
10889;DHT22;5497;51.388;6.780;2022-08-24T03:05:22;17.30;99.90
10889;DHT22;5497;51.388;6.780;2022-08-24T03:07:50;17.30;99.90
10889;DHT22;5497;51.388;6.780;2022-08-24T03:10:18;17.20;99.90
10889;DHT22;5497;51.388;6.780;2022-08-24T03:12:45;19.80;99.90
10889;DHT22;5497;51.388;6.780;2022-08-24T03:15:13;17.20;99.90
10889;DHT22;5497;51.388;6.780;2022-08-24T03:17:41;17.20;99.90
10889;DHT22;5497;51.388;6.780;2022-08-24T03:20:09;17.20;99.90
10889;DHT22;5497;51.388;6.780;2022-08-24T03:22:39;17.20;99.90
10889;DHT22;5497;51.388;6.780;2022-08-24T03:25:07;17.10;99.90
10889;DHT22;5497;51.388;6.780;2022-08-24T03:27:34;17.10;99.90
10889;DHT22;5497;51.388;6.780;2022-08-24T03:30:02;17.10;99.90
10889;DHT22;5497;51.388;6.780;2022-08-24T03:32:29;17.10;99.90
10889;DHT22;5497;51.388;6.780;2022-08-24T03:34:56;17.00;99.90
10889;DHT22;5497;51.388;6.780;2022-08-24T03:37:23;17.00;99.90
10889;DHT22;5497;51.388;6.780;2022-08-24T03:39:52;17.00;99.90
10889;DHT22;5497;51.388;6.780;2022-08-24T03:42:19;17.00;99.90
10889;DHT22;5497;51.388;6.780;2022-08-24T03:44:46;17.00;99.90
10889;DHT22;5497;51.388;6.780;2022-08-24T03:47:14;17.00;99.90
10889;DHT22;5497;51.388;6.780;2022-08-24T03:49:42;17.00;99.90
10889;DHT22;5497;51.388;6.780;2022-08-24T03:52:09;17.00;99.90
10889;DHT22;5497;51.388;6.780;2022-08-24T03:54:36;16.90;99.90
10889;DHT22;5497;51.388;6.780;2022-08-24T03:57:04;16.90;99.90
10889;DHT22;5497;51.388;6.780;2022-08-24T03:59:31;16.90;99.90
10889;DHT22;5497;51.388;6.780;2022-08-24T04:01:59;16.90;99.90
10889;DHT22;5497;51.388;6.780;2022-08-24T04:04:26;16.90;99.90
10889;DHT22;5497;51.388;6.780;2022-08-24T04:06:56;17.60;99.90
10889;DHT22;5497;51.388;6.780;2022-08-24T04:09:25;16.80;99.90
10889;DHT22;5497;51.388;6.780;2022-08-24T04:11:53;16.80;99.90
10889;DHT22;5497;51.388;6.780;2022-08-24T04:14:24;16.80;99.90
10889;DHT22;5497;51.388;6.780;2022-08-24T04:16:55;16.80;99.90
10889;DHT22;5497;51.388;6.780;2022-08-24T04:19:28;16.80;99.90
10889;DHT22;5497;51.388;6.780;2022-08-24T04:21:56;16.80;99.90
10889;DHT22;5497;51.388;6.780;2022-08-24T04:24:24;16.80;99.90
10889;DHT22;5497;51.388;6.780;2022-08-24T04:26:51;16.70;99.90
10889;DHT22;5497;51.388;6.780;2022-08-24T04:29:19;16.80;99.90
10889;DHT22;5497;51.388;6.780;2022-08-24T04:31:52;16.80;99.90
10889;DHT22;5497;51.388;6.780;2022-08-24T04:34:20;16.70;99.90
10889;DHT22;5497;51.388;6.780;2022-08-24T04:36:48;16.80;99.90
10889;DHT22;5497;51.388;6.780;2022-08-24T04:39:15;16.80;99.90
10889;DHT22;5497;51.388;6.780;2022-08-24T04:42:14;16.80;99.90
10889;DHT22;5497;51.388;6.780;2022-08-24T04:44:43;16.80;99.90
10889;DHT22;5497;51.388;6.780;2022-08-24T04:47:13;16.80;99.90
10889;DHT22;5497;51.388;6.780;2022-08-24T04:49:40;16.80;99.90
10889;DHT22;5497;51.388;6.780;2022-08-24T04:52:08;16.80;99.90
10889;DHT22;5497;51.388;6.780;2022-08-24T04:54:36;16.80;99.90
10889;DHT22;5497;51.388;6.780;2022-08-24T04:57:23;16.80;99.90
10889;DHT22;5497;51.388;6.780;2022-08-24T04:59:53;16.80;99.90
10889;DHT22;5497;51.388;6.780;2022-08-24T05:02:23;16.90;99.90
10889;DHT22;5497;51.388;6.780;2022-08-24T05:04:52;16.90;99.90
10889;DHT22;5497;51.388;6.780;2022-08-24T05:07:26;17.00;99.90
10889;DHT22;5497;51.388;6.780;2022-08-24T05:09:55;17.10;99.90
10889;DHT22;5497;51.388;6.780;2022-08-24T05:12:22;17.10;99.90
10889;DHT22;5497;51.388;6.780;2022-08-24T05:14:57;17.20;99.90
10889;DHT22;5497;51.388;6.780;2022-08-24T05:17:26;17.20;99.90
10889;DHT22;5497;51.388;6.780;2022-08-24T05:19:53;17.20;99.90
10889;DHT22;5497;51.388;6.780;2022-08-24T05:22:21;17.30;99.90
10889;DHT22;5497;51.388;6.780;2022-08-24T05:24:52;17.40;99.90
10889;DHT22;5497;51.388;6.780;2022-08-24T05:27:19;17.60;99.90
10889;DHT22;5497;51.388;6.780;2022-08-24T05:29:46;17.50;99.90
10889;DHT22;5497;51.388;6.780;2022-08-24T05:32:18;17.70;99.90
10889;DHT22;5497;51.388;6.780;2022-08-24T05:34:46;17.80;99.90
10889;DHT22;5497;51.388;6.780;2022-08-24T05:37:13;18.00;99.90
10889;DHT22;5497;51.388;6.780;2022-08-24T05:40:09;18.20;99.90
10889;DHT22;5497;51.388;6.780;2022-08-24T05:42:39;19.70;99.90
10889;DHT22;5497;51.388;6.780;2022-08-24T05:45:07;19.80;99.90
10889;DHT22;5497;51.388;6.780;2022-08-24T05:47:35;20.50;99.90
10889;DHT22;5497;51.388;6.780;2022-08-24T05:50:12;21.20;99.90
10889;DHT22;5497;51.388;6.780;2022-08-24T05:52:43;22.00;99.90
10889;DHT22;5497;51.388;6.780;2022-08-24T05:55:10;22.00;99.90
10889;DHT22;5497;51.388;6.780;2022-08-24T05:57:38;22.20;99.90
10889;DHT22;5497;51.388;6.780;2022-08-24T06:00:18;22.20;99.90
10889;DHT22;5497;51.388;6.780;2022-08-24T06:05:20;22.00;99.90
10889;DHT22;5497;51.388;6.780;2022-08-24T06:07:47;21.60;99.90
10889;DHT22;5497;51.388;6.780;2022-08-24T06:10:15;21.40;99.90
10889;DHT22;5497;51.388;6.780;2022-08-24T06:12:43;22.10;99.90
10889;DHT22;5497;51.388;6.780;2022-08-24T06:15:10;22.10;99.90
10889;DHT22;5497;51.388;6.780;2022-08-24T06:17:38;23.20;99.90
10889;DHT22;5497;51.388;6.780;2022-08-24T06:20:06;24.70;99.90
10889;DHT22;5497;51.388;6.780;2022-08-24T06:22:34;27.50;99.90
10889;DHT22;5497;51.388;6.780;2022-08-24T06:25:02;27.50;99.90
10889;DHT22;5497;51.388;6.780;2022-08-24T06:27:51;28.90;99.90
10889;DHT22;5497;51.388;6.780;2022-08-24T06:30:18;30.30;99.90
10889;DHT22;5497;51.388;6.780;2022-08-24T06:35:52;32.40;99.90
10889;DHT22;5497;51.388;6.780;2022-08-24T06:38:22;32.90;99.90
10889;DHT22;5497;51.388;6.780;2022-08-24T06:40:51;32.70;99.90
10889;DHT22;5497;51.388;6.780;2022-08-24T06:43:19;32.20;99.90
10889;DHT22;5497;51.388;6.780;2022-08-24T06:45:52;32.30;99.90
10889;DHT22;5497;51.388;6.780;2022-08-24T06:48:32;32.30;99.90
10889;DHT22;5497;51.388;6.780;2022-08-24T06:51:00;32.60;99.90
10889;DHT22;5497;51.388;6.780;2022-08-24T06:53:28;33.50;99.90
10889;DHT22;5497;51.388;6.780;2022-08-24T06:55:58;33.60;99.90
10889;DHT22;5497;51.388;6.780;2022-08-24T06:58:27;34.30;99.90
10889;DHT22;5497;51.388;6.780;2022-08-24T07:01:06;35.00;99.90
10889;DHT22;5497;51.388;6.780;2022-08-24T07:03:33;35.50;99.90
10889;DHT22;5497;51.388;6.780;2022-08-24T07:06:15;36.00;99.90
10889;DHT22;5497;51.388;6.780;2022-08-24T07:08:45;36.50;99.90
10889;DHT22;5497;51.388;6.780;2022-08-24T07:11:16;36.90;98.30
10889;DHT22;5497;51.388;6.780;2022-08-24T07:13:43;37.30;96.80
10889;DHT22;5497;51.388;6.780;2022-08-24T07:16:12;37.60;94.70
10889;DHT22;5497;51.388;6.780;2022-08-24T07:18:41;37.80;92.30
10889;DHT22;5497;51.388;6.780;2022-08-24T07:21:09;38.00;90.90
10889;DHT22;5497;51.388;6.780;2022-08-24T07:23:48;37.80;88.10
10889;DHT22;5497;51.388;6.780;2022-08-24T07:26:18;37.60;86.50
10889;DHT22;5497;51.388;6.780;2022-08-24T07:28:47;37.60;83.50
10889;DHT22;5497;51.388;6.780;2022-08-24T07:31:16;37.50;82.80
10889;DHT22;5497;51.388;6.780;2022-08-24T07:33:53;37.60;82.30
10889;DHT22;5497;51.388;6.780;2022-08-24T07:36:21;37.70;81.40
10889;DHT22;5497;51.388;6.780;2022-08-24T07:38:51;37.70;80.30
10889;DHT22;5497;51.388;6.780;2022-08-24T07:41:19;37.90;77.80
10889;DHT22;5497;51.388;6.780;2022-08-24T07:43:47;38.00;76.30
10889;DHT22;5497;51.388;6.780;2022-08-24T07:46:15;38.00;75.30
10889;DHT22;5497;51.388;6.780;2022-08-24T07:48:42;38.10;72.50
10889;DHT22;5497;51.388;6.780;2022-08-24T07:51:12;37.90;75.60
10889;DHT22;5497;51.388;6.780;2022-08-24T07:53:42;37.90;71.50
10889;DHT22;5497;51.388;6.780;2022-08-24T07:56:11;37.90;71.40
10889;DHT22;5497;51.388;6.780;2022-08-24T07:58:42;38.10;68.90
10889;DHT22;5497;51.388;6.780;2022-08-24T08:01:10;38.00;67.40
10889;DHT22;5497;51.388;6.780;2022-08-24T08:03:37;37.80;67.10
10889;DHT22;5497;51.388;6.780;2022-08-24T08:06:07;37.80;68.40
10889;DHT22;5497;51.388;6.780;2022-08-24T08:08:36;37.80;69.00
10889;DHT22;5497;51.388;6.780;2022-08-24T08:11:04;37.80;66.70
10889;DHT22;5497;51.388;6.780;2022-08-24T08:13:34;37.90;66.90
10889;DHT22;5497;51.388;6.780;2022-08-24T08:16:03;37.90;65.60
10889;DHT22;5497;51.388;6.780;2022-08-24T08:18:34;37.80;64.50
10889;DHT22;5497;51.388;6.780;2022-08-24T08:21:06;37.80;64.50
10889;DHT22;5497;51.388;6.780;2022-08-24T08:23:54;37.80;64.60
10889;DHT22;5497;51.388;6.780;2022-08-24T08:26:39;37.90;63.30
10889;DHT22;5497;51.388;6.780;2022-08-24T08:29:17;38.00;63.20
10889;DHT22;5497;51.388;6.780;2022-08-24T08:31:44;38.00;62.20
10889;DHT22;5497;51.388;6.780;2022-08-24T08:34:12;38.00;61.00
10889;DHT22;5497;51.388;6.780;2022-08-24T08:36:41;37.90;60.70
10889;DHT22;5497;51.388;6.780;2022-08-24T08:39:13;37.90;61.90
10889;DHT22;5497;51.388;6.780;2022-08-24T08:42:05;37.90;60.50
10889;DHT22;5497;51.388;6.780;2022-08-24T08:44:50;37.70;60.10
10889;DHT22;5497;51.388;6.780;2022-08-24T08:48:00;37.10;60.50
10889;DHT22;5497;51.388;6.780;2022-08-24T08:50:37;36.70;61.20
10889;DHT22;5497;51.388;6.780;2022-08-24T08:53:23;36.30;60.50
10889;DHT22;5497;51.388;6.780;2022-08-24T08:56:01;36.20;61.50
10889;DHT22;5497;51.388;6.780;2022-08-24T08:58:50;36.40;61.70
10889;DHT22;5497;51.388;6.780;2022-08-24T09:01:22;36.60;62.20
10889;DHT22;5497;51.388;6.780;2022-08-24T09:04:01;36.70;61.50
10889;DHT22;5497;51.388;6.780;2022-08-24T09:06:46;36.90;61.40
10889;DHT22;5497;51.388;6.780;2022-08-24T09:09:21;36.80;60.30
10889;DHT22;5497;51.388;6.780;2022-08-24T09:11:53;36.60;61.10
10889;DHT22;5497;51.388;6.780;2022-08-24T09:17:17;36.00;61.30
10889;DHT22;5497;51.388;6.780;2022-08-24T09:19:54;35.70;61.60
10889;DHT22;5497;51.388;6.780;2022-08-24T09:22:22;35.60;62.10
10889;DHT22;5497;51.388;6.780;2022-08-24T09:27:50;35.20;62.30
10889;DHT22;5497;51.388;6.780;2022-08-24T09:30:22;34.90;63.00
10889;DHT22;5497;51.388;6.780;2022-08-24T09:32:54;34.60;63.50
10889;DHT22;5497;51.388;6.780;2022-08-24T09:35:25;34.60;63.50
10889;DHT22;5497;51.388;6.780;2022-08-24T09:37:57;34.40;63.80
10889;DHT22;5497;51.388;6.780;2022-08-24T09:40:36;34.20;64.20
10889;DHT22;5497;51.388;6.780;2022-08-24T09:46:02;33.60;64.70
10889;DHT22;5497;51.388;6.780;2022-08-24T09:48:47;33.20;65.40
10889;DHT22;5497;51.388;6.780;2022-08-24T09:54:23;32.30;66.10
10889;DHT22;5497;51.388;6.780;2022-08-24T09:57:00;32.20;67.30
10889;DHT22;5497;51.388;6.780;2022-08-24T09:59:37;32.00;67.50
10889;DHT22;5497;51.388;6.780;2022-08-24T10:02:14;31.70;68.00
10889;DHT22;5497;51.388;6.780;2022-08-24T10:04:49;31.40;67.80
10889;DHT22;5497;51.388;6.780;2022-08-24T10:07:22;31.20;68.90
10889;DHT22;5497;51.388;6.780;2022-08-24T10:10:02;31.10;69.60
10889;DHT22;5497;51.388;6.780;2022-08-24T10:12:46;30.70;70.00
10889;DHT22;5497;51.388;6.780;2022-08-24T10:15:16;30.70;70.70
10889;DHT22;5497;51.388;6.780;2022-08-24T10:17:49;30.60;71.00
10889;DHT22;5497;51.388;6.780;2022-08-24T10:20:24;30.70;71.80
10889;DHT22;5497;51.388;6.780;2022-08-24T10:22:57;30.70;70.50
10889;DHT22;5497;51.388;6.780;2022-08-24T10:25:29;30.70;71.50
10889;DHT22;5497;51.388;6.780;2022-08-24T10:27:59;30.80;71.90
10889;DHT22;5497;51.388;6.780;2022-08-24T10:30:38;31.00;71.80
10889;DHT22;5497;51.388;6.780;2022-08-24T10:33:14;31.00;70.50
10889;DHT22;5497;51.388;6.780;2022-08-24T10:35:53;31.00;71.20
10889;DHT22;5497;51.388;6.780;2022-08-24T10:38:22;31.00;71.30
10889;DHT22;5497;51.388;6.780;2022-08-24T10:41:17;31.10;71.60
10889;DHT22;5497;51.388;6.780;2022-08-24T10:46:55;31.50;71.20
10889;DHT22;5497;51.388;6.780;2022-08-24T10:49:34;31.50;70.90
10889;DHT22;5497;51.388;6.780;2022-08-24T10:52:15;31.60;71.30
10889;DHT22;5497;51.388;6.780;2022-08-24T10:54:47;31.80;71.30
10889;DHT22;5497;51.388;6.780;2022-08-24T10:57:17;32.00;71.10
10889;DHT22;5497;51.388;6.780;2022-08-24T10:59:48;32.20;70.50
10889;DHT22;5497;51.388;6.780;2022-08-24T11:02:28;32.30;70.40
10889;DHT22;5497;51.388;6.780;2022-08-24T11:04:56;32.30;70.20
10889;DHT22;5497;51.388;6.780;2022-08-24T11:07:25;32.40;70.20
10889;DHT22;5497;51.388;6.780;2022-08-24T11:09:53;32.50;69.80
10889;DHT22;5497;51.388;6.780;2022-08-24T11:12:22;32.60;69.40
10889;DHT22;5497;51.388;6.780;2022-08-24T11:14:53;32.70;69.20
10889;DHT22;5497;51.388;6.780;2022-08-24T11:17:25;32.70;69.00
10889;DHT22;5497;51.388;6.780;2022-08-24T11:19:52;32.70;69.00
10889;DHT22;5497;51.388;6.780;2022-08-24T11:22:32;32.90;68.40
10889;DHT22;5497;51.388;6.780;2022-08-24T11:25:03;32.80;68.10
10889;DHT22;5497;51.388;6.780;2022-08-24T11:27:34;33.00;68.10
10889;DHT22;5497;51.388;6.780;2022-08-24T11:30:06;33.10;67.20
10889;DHT22;5497;51.388;6.780;2022-08-24T11:32:39;33.20;66.20
10889;DHT22;5497;51.388;6.780;2022-08-24T11:35:08;33.20;66.80
10889;DHT22;5497;51.388;6.780;2022-08-24T11:37:37;33.10;66.60
10889;DHT22;5497;51.388;6.780;2022-08-24T11:40:05;33.20;67.10
10889;DHT22;5497;51.388;6.780;2022-08-24T11:42:46;33.40;65.30
10889;DHT22;5497;51.388;6.780;2022-08-24T11:45:20;33.40;65.90
10889;DHT22;5497;51.388;6.780;2022-08-24T11:47:55;33.30;65.50
10889;DHT22;5497;51.388;6.780;2022-08-24T11:50:26;33.30;66.10
10889;DHT22;5497;51.388;6.780;2022-08-24T11:52:59;33.40;65.40
10889;DHT22;5497;51.388;6.780;2022-08-24T11:55:29;33.40;65.20
10889;DHT22;5497;51.388;6.780;2022-08-24T11:57:58;33.60;65.70
10889;DHT22;5497;51.388;6.780;2022-08-24T12:00:30;33.70;65.40
10889;DHT22;5497;51.388;6.780;2022-08-24T12:03:03;33.90;65.30
10889;DHT22;5497;51.388;6.780;2022-08-24T12:05:36;34.10;65.60
10889;DHT22;5497;51.388;6.780;2022-08-24T12:08:09;34.30;65.50
10889;DHT22;5497;51.388;6.780;2022-08-24T12:10:45;34.40;63.80
10889;DHT22;5497;51.388;6.780;2022-08-24T12:13:19;34.30;63.60
10889;DHT22;5497;51.388;6.780;2022-08-24T12:15:53;34.30;64.00
10889;DHT22;5497;51.388;6.780;2022-08-24T12:18:23;34.30;63.70
10889;DHT22;5497;51.388;6.780;2022-08-24T12:20:52;34.20;62.80
10889;DHT22;5497;51.388;6.780;2022-08-24T12:23:23;34.30;63.30
10889;DHT22;5497;51.388;6.780;2022-08-24T12:25:53;34.30;63.40
10889;DHT22;5497;51.388;6.780;2022-08-24T12:28:30;34.40;62.90
10889;DHT22;5497;51.388;6.780;2022-08-24T12:30:58;34.50;63.00
10889;DHT22;5497;51.388;6.780;2022-08-24T12:33:30;34.70;63.20
10889;DHT22;5497;51.388;6.780;2022-08-24T12:35:59;34.80;63.90
10889;DHT22;5497;51.388;6.780;2022-08-24T12:38:29;34.90;61.80
10889;DHT22;5497;51.388;6.780;2022-08-24T12:40:59;34.80;61.60
10889;DHT22;5497;51.388;6.780;2022-08-24T12:43:28;34.60;61.70
10889;DHT22;5497;51.388;6.780;2022-08-24T12:45:58;34.50;62.30
10889;DHT22;5497;51.388;6.780;2022-08-24T12:48:27;34.60;62.20
10889;DHT22;5497;51.388;6.780;2022-08-24T12:51:03;34.70;62.10
10889;DHT22;5497;51.388;6.780;2022-08-24T12:59:03;35.10;61.90
10889;DHT22;5497;51.388;6.780;2022-08-24T13:01:32;35.20;61.40
10889;DHT22;5497;51.388;6.780;2022-08-24T13:04:01;35.40;61.10
10889;DHT22;5497;51.388;6.780;2022-08-24T13:06:35;35.60;60.30
10889;DHT22;5497;51.388;6.780;2022-08-24T13:09:04;35.60;60.00
10889;DHT22;5497;51.388;6.780;2022-08-24T13:11:32;35.30;59.60
10889;DHT22;5497;51.388;6.780;2022-08-24T13:16:44;35.00;60.20
10889;DHT22;5497;51.388;6.780;2022-08-24T13:19:15;35.20;60.40
10889;DHT22;5497;51.388;6.780;2022-08-24T13:21:48;35.40;60.00
10889;DHT22;5497;51.388;6.780;2022-08-24T13:29:52;35.40;59.70
10889;DHT22;5497;51.388;6.780;2022-08-24T13:32:34;35.40;59.80
10889;DHT22;5497;51.388;6.780;2022-08-24T13:40:30;35.70;59.10
10889;DHT22;5497;51.388;6.780;2022-08-24T13:43:03;35.80;59.30
10889;DHT22;5497;51.388;6.780;2022-08-24T13:45:33;35.80;58.90
10889;DHT22;5497;51.388;6.780;2022-08-24T13:48:09;35.90;58.40
10889;DHT22;5497;51.388;6.780;2022-08-24T13:50:41;36.00;58.50
10889;DHT22;5497;51.388;6.780;2022-08-24T13:56:10;36.10;58.10
10889;DHT22;5497;51.388;6.780;2022-08-24T13:58:38;36.10;58.20
10889;DHT22;5497;51.388;6.780;2022-08-24T14:01:17;36.10;57.80
10889;DHT22;5497;51.388;6.780;2022-08-24T14:03:58;35.80;58.00
10889;DHT22;5497;51.388;6.780;2022-08-24T14:06:31;35.60;58.00
10889;DHT22;5497;51.388;6.780;2022-08-24T14:09:08;35.20;58.30
10889;DHT22;5497;51.388;6.780;2022-08-24T14:11:47;35.00;58.50
10889;DHT22;5497;51.388;6.780;2022-08-24T14:14:21;34.80;58.50
10889;DHT22;5497;51.388;6.780;2022-08-24T14:16:54;34.60;58.80
10889;DHT22;5497;51.388;6.780;2022-08-24T14:19:46;34.40;58.90
10889;DHT22;5497;51.388;6.780;2022-08-24T14:22:17;34.10;59.20
10889;DHT22;5497;51.388;6.780;2022-08-24T14:24:52;33.70;59.60
10889;DHT22;5497;51.388;6.780;2022-08-24T14:27:34;33.60;59.40
10889;DHT22;5497;51.388;6.780;2022-08-24T14:33:02;33.60;59.40
10889;DHT22;5497;51.388;6.780;2022-08-24T14:35:35;33.60;59.50
10889;DHT22;5497;51.388;6.780;2022-08-24T14:38:09;33.70;59.50
10889;DHT22;5497;51.388;6.780;2022-08-24T14:40:40;33.80;59.50
10889;DHT22;5497;51.388;6.780;2022-08-24T14:43:15;33.90;59.40
10889;DHT22;5497;51.388;6.780;2022-08-24T14:45:49;34.20;59.50
10889;DHT22;5497;51.388;6.780;2022-08-24T14:48:19;34.40;59.00
10889;DHT22;5497;51.388;6.780;2022-08-24T14:50:52;34.50;58.30
10889;DHT22;5497;51.388;6.780;2022-08-24T14:53:28;34.70;58.60
10889;DHT22;5497;51.388;6.780;2022-08-24T14:56:03;34.90;58.50
10889;DHT22;5497;51.388;6.780;2022-08-24T14:58:36;35.10;57.80
10889;DHT22;5497;51.388;6.780;2022-08-24T15:01:11;35.20;57.60
10889;DHT22;5497;51.388;6.780;2022-08-24T15:06:39;35.40;57.50
10889;DHT22;5497;51.388;6.780;2022-08-24T15:09:12;35.40;57.00
10889;DHT22;5497;51.388;6.780;2022-08-24T15:11:43;35.40;57.20
10889;DHT22;5497;51.388;6.780;2022-08-24T15:14:10;34.40;56.40
10889;DHT22;5497;51.388;6.780;2022-08-24T15:16:42;35.40;56.80
10889;DHT22;5497;51.388;6.780;2022-08-24T15:19:11;35.40;56.80
10889;DHT22;5497;51.388;6.780;2022-08-24T15:21:44;35.30;56.30
10889;DHT22;5497;51.388;6.780;2022-08-24T15:24:16;35.10;55.90
10889;DHT22;5497;51.388;6.780;2022-08-24T15:26:51;35.00;56.30
10889;DHT22;5497;51.388;6.780;2022-08-24T15:29:22;34.90;56.50
10889;DHT22;5497;51.388;6.780;2022-08-24T15:31:57;34.90;56.60
10889;DHT22;5497;51.388;6.780;2022-08-24T15:34:36;35.00;57.00
10889;DHT22;5497;51.388;6.780;2022-08-24T15:37:05;35.10;57.30
10889;DHT22;5497;51.388;6.780;2022-08-24T15:39:32;35.00;57.10
10889;DHT22;5497;51.388;6.780;2022-08-24T15:42:01;34.90;56.80
10889;DHT22;5497;51.388;6.780;2022-08-24T15:44:30;34.80;56.70
10889;DHT22;5497;51.388;6.780;2022-08-24T15:46:58;34.80;57.10
10889;DHT22;5497;51.388;6.780;2022-08-24T15:49:27;34.70;56.50
10889;DHT22;5497;51.388;6.780;2022-08-24T15:51:55;34.60;56.60
10889;DHT22;5497;51.388;6.780;2022-08-24T15:54:32;34.40;57.00
10889;DHT22;5497;51.388;6.780;2022-08-24T15:57:00;34.30;57.30
10889;DHT22;5497;51.388;6.780;2022-08-24T15:59:29;34.10;57.50
10889;DHT22;5497;51.388;6.780;2022-08-24T16:01:57;34.10;57.40
10889;DHT22;5497;51.388;6.780;2022-08-24T16:04:44;34.00;57.50
10889;DHT22;5497;51.388;6.780;2022-08-24T16:07:21;33.80;57.10
10889;DHT22;5497;51.388;6.780;2022-08-24T16:10:01;33.80;57.70
10889;DHT22;5497;51.388;6.780;2022-08-24T16:12:30;33.70;57.60
10889;DHT22;5497;51.388;6.780;2022-08-24T16:15:08;33.60;57.80
10889;DHT22;5497;51.388;6.780;2022-08-24T16:17:39;33.50;57.30
10889;DHT22;5497;51.388;6.780;2022-08-24T16:20:10;33.30;58.10
10889;DHT22;5497;51.388;6.780;2022-08-24T16:22:48;33.20;57.70
10889;DHT22;5497;51.388;6.780;2022-08-24T16:25:21;33.20;58.20
10889;DHT22;5497;51.388;6.780;2022-08-24T16:27:59;33.30;58.00
10889;DHT22;5497;51.388;6.780;2022-08-24T16:30:34;33.30;57.80
10889;DHT22;5497;51.388;6.780;2022-08-24T16:33:02;33.30;57.80
10889;DHT22;5497;51.388;6.780;2022-08-24T16:35:29;33.30;57.70
10889;DHT22;5497;51.388;6.780;2022-08-24T16:37:57;33.30;57.90
10889;DHT22;5497;51.388;6.780;2022-08-24T16:40:26;33.20;58.00
10889;DHT22;5497;51.388;6.780;2022-08-24T16:42:53;32.90;57.90
10889;DHT22;5497;51.388;6.780;2022-08-24T16:45:21;32.90;58.80
10889;DHT22;5497;51.388;6.780;2022-08-24T16:47:48;32.90;58.90
10889;DHT22;5497;51.388;6.780;2022-08-24T16:50:17;32.90;59.30
10889;DHT22;5497;51.388;6.780;2022-08-24T16:52:44;32.90;58.60
10889;DHT22;5497;51.388;6.780;2022-08-24T16:55:11;32.90;59.20
10889;DHT22;5497;51.388;6.780;2022-08-24T16:57:42;32.90;58.90
10889;DHT22;5497;51.388;6.780;2022-08-24T17:00:11;33.00;59.00
10889;DHT22;5497;51.388;6.780;2022-08-24T17:02:40;31.50;57.90